Minerva, Iowa
Current Conditions -  °F | °C
As of 3:02 AM on Sunday 23 Nov 2014 (Local Time) from KMIW Reporting Station
Overcast Overcast  
Wind Chill: 52°   Ceiling: 2000
Heat Index: 52°   Visibility: 7mi
Dew Point: 50°   Wind: 15mph
Humidity: 93%   Direction: 180°S
Pressure: 29.57"   Gusts: NA
Location:  42.1247°N, 93.0244°W
Report Text: KMIW 230902Z AUTO 18013KT 7SM SCT007 OVC020 11/10 A2957 RMK AO2 T01110100
Loading
Personal Weather Stations






























Interactive Weather Map New forecast layout! Learn more

10-Day Weather Forecast

Advertisements
Track Severe Weather on mobile